createdAt,value
2022-12-06T00:02:15.937Z,7.23
2022-12-06T00:04:44.140Z,8.77
2022-12-06T00:09:55.192Z,6.90
2022-12-06T00:12:23.336Z,6.97
2022-12-06T00:14:51.412Z,7.40
2022-12-06T00:17:20.932Z,6.10
2022-12-06T00:19:49.179Z,6.03
2022-12-06T00:22:17.315Z,7.43
2022-12-06T00:24:45.479Z,7.47
2022-12-06T00:27:13.605Z,7.77
2022-12-06T00:29:41.710Z,8.70
2022-12-06T00:32:12.359Z,6.20
2022-12-06T00:34:45.657Z,8.00
2022-12-06T00:37:13.857Z,7.20
2022-12-06T00:39:41.968Z,8.10
2022-12-06T00:42:10.142Z,7.30
2022-12-06T00:44:38.273Z,6.50
2022-12-06T00:47:06.472Z,6.70
2022-12-06T00:49:34.610Z,7.87
2022-12-06T00:52:04.210Z,8.30
2022-12-06T00:54:32.382Z,7.50
2022-12-06T00:57:00.548Z,10.73
2022-12-06T00:59:28.653Z,8.97
2022-12-06T01:01:56.811Z,8.50
2022-12-06T01:04:24.976Z,7.87
2022-12-06T01:06:53.089Z,9.23
2022-12-06T01:09:22.630Z,9.90
2022-12-06T01:11:56.383Z,8.50
2022-12-06T01:14:24.467Z,7.70
2022-12-06T01:16:52.600Z,11.23
2022-12-06T01:19:20.923Z,8.73
2022-12-06T01:21:50.047Z,9.77
2022-12-06T01:24:18.081Z,7.80
2022-12-06T01:26:47.447Z,7.43
2022-12-06T01:29:15.523Z,7.90
2022-12-06T01:31:43.874Z,7.63
2022-12-06T01:34:17.532Z,8.20
2022-12-06T01:36:45.896Z,9.50
2022-12-06T01:39:13.960Z,8.60
2022-12-06T01:41:41.993Z,8.03
2022-12-06T01:44:45.223Z,10.10
2022-12-06T01:47:18.190Z,7.67
2022-12-06T01:49:48.180Z,7.53
2022-12-06T01:52:16.236Z,8.60
2022-12-06T01:54:44.341Z,10.10
2022-12-06T01:57:13.285Z,8.60
2022-12-06T01:59:41.405Z,9.30
2022-12-06T02:02:10.966Z,8.27
2022-12-06T02:04:39.096Z,8.70
2022-12-06T02:07:07.373Z,8.40
2022-12-06T02:09:35.570Z,10.07
2022-12-06T02:12:03.628Z,6.90
2022-12-06T02:14:33.039Z,8.73
2022-12-06T02:17:08.846Z,9.37
2022-12-06T02:20:06.763Z,9.73
2022-12-06T02:22:49.440Z,7.83
2022-12-06T02:25:33.998Z,8.17
2022-12-06T02:28:23.469Z,9.00
2022-12-06T02:30:54.058Z,8.00
2022-12-06T02:33:23.835Z,7.60
2022-12-06T02:35:54.516Z,7.17
2022-12-06T02:38:25.325Z,9.00
2022-12-06T02:40:56.615Z,7.13
2022-12-06T02:43:27.007Z,7.80
2022-12-06T02:45:57.727Z,6.63
2022-12-06T02:48:25.855Z,7.97
2022-12-06T02:50:55.863Z,8.13
2022-12-06T02:53:23.972Z,8.60
2022-12-06T02:55:52.075Z,9.17
2022-12-06T02:58:20.142Z,8.27
2022-12-06T03:00:48.333Z,6.97
2022-12-06T03:03:30.049Z,11.10
2022-12-06T03:06:34.068Z,8.50
2022-12-06T03:09:07.561Z,7.80
2022-12-06T03:11:41.250Z,7.33
2022-12-06T03:14:14.536Z,7.90
2022-12-06T03:16:44.893Z,8.50
2022-12-06T03:19:16.492Z,8.30
2022-12-06T03:21:46.035Z,8.43
2022-12-06T03:24:15.436Z,7.60
2022-12-06T03:26:44.086Z,8.33
2022-12-06T03:29:12.194Z,8.90
2022-12-06T03:31:40.919Z,7.40
2022-12-06T03:34:11.413Z,8.37
2022-12-06T03:36:40.863Z,7.97
2022-12-06T03:39:09.249Z,9.40
2022-12-06T03:41:38.687Z,9.70
2022-12-06T03:44:06.764Z,8.10
2022-12-06T03:46:36.488Z,9.97
2022-12-06T03:49:05.917Z,9.20
2022-12-06T03:51:34.785Z,7.60
2022-12-06T03:54:05.436Z,7.17
2022-12-06T03:56:37.241Z,7.53
2022-12-06T03:59:05.714Z,8.57
2022-12-06T04:01:34.034Z,8.87
2022-12-06T04:04:02.196Z,8.17
2022-12-06T04:06:30.305Z,9.40
2022-12-06T04:09:18.834Z,7.30
2022-12-06T04:11:48.277Z,7.63
2022-12-06T04:14:16.417Z,7.87
2022-12-06T04:17:01.943Z,7.93
2022-12-06T04:19:30.149Z,7.90
2022-12-06T04:22:15.512Z,9.90
2022-12-06T04:24:43.750Z,9.73
2022-12-06T04:27:30.633Z,7.87
2022-12-06T04:30:16.343Z,8.60
2022-12-06T04:33:01.992Z,8.90
2022-12-06T04:35:47.553Z,8.80
2022-12-06T04:38:33.147Z,8.03
2022-12-06T04:41:01.221Z,6.97
2022-12-06T04:43:44.473Z,9.40
2022-12-06T04:46:12.811Z,10.43
2022-12-06T04:48:40.978Z,8.03
2022-12-06T04:51:13.167Z,7.03
2022-12-06T04:53:41.563Z,9.07
2022-12-06T04:56:09.656Z,8.87
2022-12-06T04:58:39.116Z,10.97
2022-12-06T05:01:16.187Z,10.10
2022-12-06T05:03:44.713Z,8.47
2022-12-06T05:06:12.839Z,8.80
2022-12-06T05:08:40.935Z,10.57
2022-12-06T05:11:09.007Z,8.30
2022-12-06T05:13:38.474Z,8.97
2022-12-06T05:16:07.956Z,8.80
2022-12-06T05:18:36.202Z,8.90
2022-12-06T05:21:05.629Z,8.23
2022-12-06T05:23:33.744Z,7.70
2022-12-06T05:26:01.796Z,8.93
2022-12-06T05:28:29.985Z,9.17
2022-12-06T05:30:59.418Z,9.20
2022-12-06T05:33:27.654Z,8.77
2022-12-06T05:35:55.712Z,10.10
2022-12-06T05:38:24.016Z,8.50
2022-12-06T05:40:52.080Z,8.67
2022-12-06T05:43:20.115Z,9.40
2022-12-06T05:45:48.262Z,8.80
2022-12-06T05:48:18.690Z,8.80
2022-12-06T05:51:03.787Z,10.00
2022-12-06T05:53:31.867Z,8.50
2022-12-06T05:56:05.383Z,8.97
2022-12-06T05:58:33.575Z,8.70
2022-12-06T06:01:01.733Z,10.20
2022-12-06T06:03:31.221Z,8.67
2022-12-06T06:06:00.345Z,8.97
2022-12-06T06:08:28.788Z,7.87
2022-12-06T06:10:56.918Z,11.20
2022-12-06T06:13:25.026Z,9.03
2022-12-06T06:15:53.197Z,9.27
2022-12-06T06:18:21.408Z,7.17
2022-12-06T06:20:51.838Z,7.70
2022-12-06T06:23:24.545Z,8.43
2022-12-06T06:25:52.628Z,9.20
2022-12-06T06:28:20.682Z,7.00
2022-12-06T06:30:48.777Z,7.73
2022-12-06T06:33:16.907Z,9.13
2022-12-06T06:35:45.068Z,8.40
2022-12-06T06:38:14.568Z,7.37
2022-12-06T06:40:42.599Z,9.07
2022-12-06T06:43:20.247Z,10.17
2022-12-06T06:45:53.197Z,8.50
2022-12-06T06:48:21.316Z,9.30
2022-12-06T06:50:53.893Z,9.30
2022-12-06T06:53:26.469Z,9.27
2022-12-06T06:56:00.577Z,8.50
2022-12-06T06:58:28.668Z,9.50
2022-12-06T07:00:57.354Z,8.70
2022-12-06T07:03:25.680Z,8.80
2022-12-06T07:05:53.775Z,8.93
2022-12-06T07:08:22.007Z,7.80
2022-12-06T07:10:51.520Z,6.80
2022-12-06T07:13:20.711Z,8.40
2022-12-06T07:15:48.949Z,6.77
2022-12-06T07:18:17.898Z,7.60
2022-12-06T07:20:46.016Z,8.00
2022-12-06T07:23:14.181Z,8.20
2022-12-06T07:25:42.205Z,8.23
2022-12-06T07:28:11.630Z,8.83
2022-12-06T07:30:39.683Z,7.40
2022-12-06T07:33:07.766Z,7.80
2022-12-06T07:36:10.956Z,8.43
2022-12-06T07:38:23.977Z,7.60
2022-12-06T07:41:07.211Z,9.50
2022-12-06T07:43:54.112Z,8.07
2022-12-06T07:46:22.187Z,7.80
2022-12-06T07:48:50.356Z,7.80
2022-12-06T07:51:19.304Z,8.10
2022-12-06T07:53:47.369Z,6.17
2022-12-06T07:56:15.436Z,8.33
2022-12-06T07:58:45.240Z,10.60
2022-12-06T08:01:13.308Z,8.33
2022-12-06T08:03:41.430Z,8.10
2022-12-06T08:06:09.567Z,8.40
2022-12-06T08:08:37.757Z,8.07
2022-12-06T08:11:07.658Z,8.10
2022-12-06T08:13:36.083Z,9.90
2022-12-06T08:16:07.964Z,7.00
2022-12-06T08:18:41.017Z,7.33
2022-12-06T08:21:09.420Z,8.70
2022-12-06T08:23:37.530Z,8.20
2022-12-06T08:26:06.576Z,9.40
2022-12-06T08:28:35.241Z,7.87
2022-12-06T08:31:08.508Z,7.90
2022-12-06T08:33:36.607Z,7.40
2022-12-06T08:36:08.944Z,7.67
2022-12-06T08:38:37.442Z,9.33
2022-12-06T08:41:05.830Z,9.07
2022-12-06T08:43:34.030Z,7.97
2022-12-06T08:46:02.146Z,7.97
2022-12-06T08:48:31.700Z,7.93
2022-12-06T08:51:03.189Z,8.80
2022-12-06T08:53:31.262Z,12.27
2022-12-06T08:56:02.827Z,7.47
2022-12-06T08:58:31.210Z,9.07
2022-12-06T09:00:59.304Z,9.67
2022-12-06T09:03:27.417Z,9.83
2022-12-06T09:05:56.917Z,7.40
2022-12-06T09:08:25.120Z,9.20
2022-12-06T09:10:53.200Z,8.33
2022-12-06T09:13:21.267Z,9.57
2022-12-06T09:15:49.382Z,8.17
2022-12-06T09:18:17.482Z,7.03
2022-12-06T09:20:45.508Z,9.40
2022-12-06T09:23:14.969Z,7.20
2022-12-06T09:25:43.195Z,7.83
2022-12-06T09:28:11.581Z,7.57
2022-12-06T09:30:39.718Z,9.30
2022-12-06T09:33:07.761Z,8.73
2022-12-06T09:35:35.778Z,9.00
2022-12-06T09:38:03.951Z,6.80
2022-12-06T09:40:39.930Z,8.53
2022-12-06T09:43:20.205Z,6.83
2022-12-06T09:46:06.965Z,7.57
2022-12-06T09:49:08.529Z,5.90
2022-12-06T09:51:47.658Z,8.80
2022-12-06T09:54:25.548Z,5.50
2022-12-06T09:56:59.924Z,7.67
2022-12-06T09:59:30.927Z,8.10
2022-12-06T10:02:15.333Z,5.63
2022-12-06T10:04:54.544Z,8.40
2022-12-06T10:07:26.131Z,7.13
2022-12-06T10:09:59.564Z,7.83
2022-12-06T10:12:45.000Z,5.47
2022-12-06T10:15:20.513Z,5.20
2022-12-06T10:17:56.859Z,7.67
2022-12-06T10:20:31.194Z,5.57
2022-12-06T10:23:04.180Z,5.73
2022-12-06T10:25:35.108Z,6.00
2022-12-06T10:28:08.016Z,5.67
2022-12-06T10:30:36.129Z,5.27
2022-12-06T10:33:06.630Z,6.30
2022-12-06T10:35:41.642Z,5.20
2022-12-06T10:38:24.998Z,8.13
2022-12-06T10:40:56.267Z,4.40
2022-12-06T10:43:29.308Z,6.63
2022-12-06T10:46:25.320Z,7.17
2022-12-06T10:48:58.834Z,6.40
2022-12-06T10:51:41.429Z,4.87
2022-12-06T10:54:19.460Z,5.53
2022-12-06T10:56:47.583Z,5.80
2022-12-06T10:59:22.398Z,5.90
2022-12-06T11:01:53.459Z,7.00
2022-12-06T11:04:23.634Z,5.67
2022-12-06T11:06:54.863Z,5.77
2022-12-06T11:09:27.044Z,8.40
2022-12-06T11:11:55.112Z,5.40
2022-12-06T11:14:26.940Z,4.00
2022-12-06T11:16:56.616Z,4.60
2022-12-06T11:19:28.649Z,4.30
2022-12-06T11:21:59.682Z,4.53
2022-12-06T11:24:29.362Z,4.70
2022-12-06T11:27:00.443Z,5.07
2022-12-06T11:29:30.925Z,4.53
2022-12-06T11:31:59.973Z,4.20
2022-12-06T11:34:32.409Z,4.73
2022-12-06T11:37:00.872Z,3.70
2022-12-06T11:39:29.021Z,4.33
2022-12-06T11:41:58.545Z,4.33
2022-12-06T11:44:27.386Z,4.33
2022-12-06T11:46:57.907Z,10.67
2022-12-06T11:49:28.778Z,3.93
2022-12-06T11:51:56.846Z,5.03
2022-12-06T11:54:27.808Z,4.83
2022-12-06T11:56:55.829Z,4.07
2022-12-06T11:59:25.933Z,3.60
2022-12-06T12:01:55.267Z,3.20
2022-12-06T12:04:36.549Z,4.30
2022-12-06T12:07:07.575Z,4.13
2022-12-06T12:09:37.544Z,4.33
2022-12-06T12:12:06.698Z,3.73
2022-12-06T12:14:39.123Z,3.90
2022-12-06T12:17:15.926Z,4.23
2022-12-06T12:19:47.991Z,4.63
2022-12-06T12:22:21.972Z,5.40
2022-12-06T12:27:47.111Z,5.30
2022-12-06T12:30:34.484Z,3.23
2022-12-06T12:33:17.640Z,4.07
2022-12-06T12:35:47.644Z,3.50
2022-12-06T12:38:17.853Z,3.67
2022-12-06T12:40:49.824Z,3.73
2022-12-06T12:43:21.361Z,3.03
2022-12-06T12:46:07.742Z,3.23
2022-12-06T12:48:35.879Z,3.50
2022-12-06T12:51:06.774Z,2.97
2022-12-06T12:53:38.216Z,3.40
2022-12-06T12:56:10.714Z,2.77
2022-12-06T12:58:38.863Z,3.10
2022-12-06T13:01:23.100Z,3.07
2022-12-06T13:03:52.728Z,3.23
2022-12-06T13:06:26.650Z,3.63
2022-12-06T13:08:54.645Z,3.27
2022-12-06T13:11:22.708Z,3.03
2022-12-06T13:13:51.587Z,3.73
2022-12-06T13:16:21.120Z,3.53
2022-12-06T13:18:50.264Z,3.33
2022-12-06T13:21:22.306Z,3.13
2022-12-06T13:23:51.615Z,2.90
2022-12-06T13:26:21.740Z,2.83
2022-12-06T13:29:01.419Z,3.43
2022-12-06T13:31:33.161Z,2.70
2022-12-06T13:34:03.823Z,2.20
2022-12-06T13:36:34.333Z,2.80
2022-12-06T13:39:21.861Z,2.47
2022-12-06T13:42:13.927Z,3.03
2022-12-06T13:44:42.731Z,2.73
2022-12-06T13:47:39.566Z,2.43
2022-12-06T13:50:40.609Z,2.87
2022-12-06T13:53:10.123Z,2.53
2022-12-06T13:55:57.594Z,3.37
2022-12-06T13:58:41.384Z,2.67
2022-12-06T14:01:40.358Z,2.70
2022-12-06T14:07:02.616Z,2.70
2022-12-06T14:09:42.388Z,2.10
2022-12-06T14:12:16.706Z,5.60
2022-12-06T14:14:46.461Z,2.80
2022-12-06T14:17:32.106Z,3.10
2022-12-06T14:20:03.893Z,3.10
2022-12-06T14:22:34.710Z,2.67
2022-12-06T14:25:06.949Z,2.70
2022-12-06T14:27:43.409Z,3.03
2022-12-06T14:30:24.886Z,2.90
2022-12-06T14:32:54.805Z,3.50
2022-12-06T14:35:26.278Z,2.50
2022-12-06T14:37:55.305Z,2.53
2022-12-06T14:43:15.699Z,2.67
2022-12-06T14:45:43.733Z,5.00
2022-12-06T14:48:11.979Z,2.70
2022-12-06T14:50:42.486Z,2.70
2022-12-06T14:53:13.732Z,2.43
2022-12-06T14:55:55.081Z,3.07
2022-12-06T14:58:24.294Z,2.90
2022-12-06T15:00:54.612Z,2.43
2022-12-06T15:03:29.061Z,2.70
2022-12-06T15:06:15.300Z,2.40
2022-12-06T15:08:43.394Z,3.07
2022-12-06T15:11:52.715Z,2.77
2022-12-06T15:14:22.121Z,2.73
2022-12-06T15:17:01.243Z,4.13
2022-12-06T15:19:29.689Z,3.63
2022-12-06T15:21:57.916Z,2.30
2022-12-06T15:24:32.170Z,2.40
2022-12-06T15:27:02.115Z,2.67
2022-12-06T15:29:30.247Z,3.13
2022-12-06T15:31:58.352Z,2.53
2022-12-06T15:34:27.671Z,2.97
2022-12-06T15:37:15.166Z,2.40
2022-12-06T15:39:44.122Z,2.37
2022-12-06T15:42:17.891Z,2.73
2022-12-06T15:44:49.434Z,2.20
2022-12-06T15:47:28.585Z,3.20
2022-12-06T15:49:58.210Z,2.57
2022-12-06T15:52:27.578Z,2.43
2022-12-06T15:54:55.582Z,3.57
2022-12-06T15:57:25.050Z,3.00
2022-12-06T15:59:53.087Z,3.07
2022-12-06T16:02:21.239Z,2.53
2022-12-06T16:04:51.307Z,2.70
2022-12-06T16:07:19.712Z,2.77
2022-12-06T16:09:48.098Z,3.73
2022-12-06T16:12:25.554Z,2.70
2022-12-06T16:14:53.627Z,4.43
2022-12-06T16:17:21.636Z,2.40
2022-12-06T16:20:07.273Z,2.90
2022-12-06T16:22:53.069Z,3.23
2022-12-06T16:25:21.198Z,2.40
2022-12-06T16:27:50.689Z,3.00
2022-12-06T16:30:19.793Z,4.17
2022-12-06T16:32:47.838Z,2.63
2022-12-06T16:35:15.990Z,3.50
2022-12-06T16:37:44.052Z,2.80
2022-12-06T16:40:14.132Z,2.73
2022-12-06T16:42:42.224Z,5.10
2022-12-06T16:45:17.614Z,2.60
2022-12-06T16:47:45.902Z,2.67
2022-12-06T16:50:17.794Z,2.90
2022-12-06T16:52:46.016Z,2.80
2022-12-06T16:55:14.095Z,3.93
2022-12-06T16:57:42.119Z,2.30
2022-12-06T17:00:13.437Z,2.90
2022-12-06T17:02:45.435Z,3.07
2022-12-06T17:05:17.405Z,3.33
2022-12-06T17:07:45.564Z,2.70
2022-12-06T17:10:15.721Z,2.33
2022-12-06T17:12:43.827Z,3.00
2022-12-06T17:15:14.804Z,2.20
2022-12-06T17:17:42.961Z,2.20
2022-12-06T17:20:11.655Z,2.33
2022-12-06T17:22:40.331Z,2.57
2022-12-06T17:25:09.556Z,2.50
2022-12-06T17:27:38.388Z,2.27
2022-12-06T17:30:08.571Z,2.47
2022-12-06T17:32:38.015Z,3.10
2022-12-06T17:35:09.546Z,2.80
2022-12-06T17:37:37.620Z,3.27
2022-12-06T17:40:06.499Z,2.70
2022-12-06T17:42:51.831Z,2.47
2022-12-06T17:45:24.668Z,3.13
2022-12-06T17:47:54.325Z,2.93
2022-12-06T17:50:22.351Z,3.40
2022-12-06T17:52:50.541Z,2.97
2022-12-06T17:55:18.707Z,2.70
2022-12-06T17:57:46.783Z,3.03
2022-12-06T18:00:16.465Z,2.73
2022-12-06T18:02:44.666Z,4.10
2022-12-06T18:05:14.182Z,2.63
2022-12-06T18:07:42.662Z,3.30
2022-12-06T18:10:11.582Z,3.00
2022-12-06T18:12:39.668Z,7.67
2022-12-06T18:15:28.629Z,2.73
2022-12-06T18:17:56.652Z,2.40
2022-12-06T18:20:26.086Z,3.10
2022-12-06T18:22:54.159Z,3.40
2022-12-06T18:25:22.289Z,3.93
2022-12-06T18:27:50.326Z,2.93
2022-12-06T18:30:18.604Z,2.70
2022-12-06T18:32:46.752Z,2.83
2022-12-06T18:35:15.054Z,4.07
2022-12-06T18:37:44.579Z,2.87
2022-12-06T18:40:23.434Z,2.67
2022-12-06T18:42:52.267Z,3.03
2022-12-06T18:45:20.315Z,2.67
2022-12-06T18:47:48.597Z,3.43
2022-12-06T18:50:16.841Z,3.30
2022-12-06T18:52:46.505Z,3.90
2022-12-06T18:55:14.584Z,3.40
2022-12-06T18:57:43.009Z,3.03
2022-12-06T19:00:12.357Z,3.90
2022-12-06T19:02:40.426Z,3.20
2022-12-06T19:05:09.058Z,2.53
2022-12-06T19:07:37.408Z,4.07
2022-12-06T19:10:08.396Z,3.93
2022-12-06T19:12:36.584Z,3.70
2022-12-06T19:15:05.097Z,3.27
2022-12-06T19:17:33.304Z,4.07
2022-12-06T19:20:01.806Z,3.47
2022-12-06T19:22:30.129Z,3.80
2022-12-06T19:24:58.276Z,3.17
2022-12-06T19:27:28.112Z,3.33
2022-12-06T19:29:59.192Z,3.27
2022-12-06T19:32:27.600Z,3.23
2022-12-06T19:34:56.727Z,2.97
2022-12-06T19:37:24.771Z,3.00
2022-12-06T19:39:52.821Z,4.77
2022-12-06T19:42:38.230Z,2.90
2022-12-06T19:45:09.733Z,3.20
2022-12-06T19:47:37.766Z,3.07
2022-12-06T19:50:06.980Z,3.37
2022-12-06T19:52:35.055Z,7.93
2022-12-06T19:55:03.204Z,2.90
2022-12-06T19:57:31.261Z,4.07
2022-12-06T19:59:59.626Z,3.20
2022-12-06T20:02:29.407Z,2.90
2022-12-06T20:04:57.499Z,5.20
2022-12-06T20:07:25.568Z,3.40
2022-12-06T20:09:53.657Z,3.63
2022-12-06T20:12:21.738Z,3.43
2022-12-06T20:14:50.312Z,3.97
2022-12-06T20:17:19.214Z,3.53
2022-12-06T20:19:49.176Z,4.57
2022-12-06T20:22:17.846Z,2.80
2022-12-06T20:24:46.425Z,5.93
2022-12-06T20:27:14.529Z,4.70
2022-12-06T20:29:42.745Z,4.30
2022-12-06T20:32:11.242Z,5.27
2022-12-06T20:34:39.398Z,4.43
2022-12-06T20:37:08.847Z,4.17
2022-12-06T20:39:36.910Z,3.87
2022-12-06T20:42:06.031Z,3.73
2022-12-06T20:44:34.391Z,5.20
2022-12-06T20:47:02.625Z,4.23
2022-12-06T20:49:30.791Z,5.87
2022-12-06T20:52:02.518Z,3.87
2022-12-06T20:54:31.973Z,4.20
2022-12-06T20:57:00.003Z,3.40
2022-12-06T20:59:29.453Z,3.73
2022-12-06T21:01:57.781Z,7.50
2022-12-06T21:04:26.607Z,5.37
2022-12-06T21:06:55.019Z,3.90
2022-12-06T21:09:23.119Z,3.90
2022-12-06T21:11:52.582Z,5.00
2022-12-06T21:14:20.619Z,6.40
2022-12-06T21:16:48.867Z,4.50
2022-12-06T21:19:17.553Z,3.93
2022-12-06T21:21:47.506Z,4.50
2022-12-06T21:24:16.720Z,3.93
2022-12-06T21:26:44.938Z,5.27
2022-12-06T21:29:16.047Z,4.40
2022-12-06T21:31:44.166Z,4.93
2022-12-06T21:34:12.594Z,4.80
2022-12-06T21:36:40.656Z,4.40
2022-12-06T21:39:09.058Z,4.53
2022-12-06T21:41:37.417Z,4.77
2022-12-06T21:44:05.481Z,4.97
2022-12-06T21:46:35.090Z,8.53
2022-12-06T21:49:03.249Z,4.20
2022-12-06T21:51:34.752Z,4.97
2022-12-06T21:54:02.794Z,7.70
2022-12-06T21:56:38.191Z,6.13
2022-12-06T21:59:06.350Z,5.13
2022-12-06T22:01:35.992Z,4.50
2022-12-06T22:04:04.764Z,4.37
2022-12-06T22:06:33.579Z,4.57
2022-12-06T22:09:18.271Z,5.27
2022-12-06T22:11:46.539Z,5.53
2022-12-06T22:14:17.502Z,4.73
2022-12-06T22:16:48.667Z,7.40
2022-12-06T22:19:16.949Z,4.87
2022-12-06T22:21:45.022Z,5.00
2022-12-06T22:24:13.104Z,5.90
2022-12-06T22:26:41.192Z,6.30
2022-12-06T22:29:09.850Z,5.40
2022-12-06T22:31:38.073Z,5.70
2022-12-06T22:34:07.702Z,5.63
2022-12-06T22:36:35.873Z,6.50
2022-12-06T22:39:04.148Z,6.93
2022-12-06T22:41:32.266Z,6.13
2022-12-06T22:44:01.149Z,6.27
2022-12-06T22:46:29.524Z,6.23
2022-12-06T22:48:57.882Z,8.17
2022-12-06T22:51:28.148Z,6.60
2022-12-06T22:53:57.159Z,7.13
2022-12-06T22:56:25.324Z,8.80
2022-12-06T22:58:53.780Z,8.80
2022-12-06T23:01:25.383Z,9.00
2022-12-06T23:03:56.622Z,9.30
2022-12-06T23:06:27.430Z,8.60
2022-12-06T23:08:55.682Z,11.20
2022-12-06T23:11:24.711Z,9.90
2022-12-06T23:13:52.835Z,8.60
2022-12-06T23:16:22.265Z,8.20
2022-12-06T23:18:50.497Z,9.23
2022-12-06T23:21:19.722Z,7.87
2022-12-06T23:23:50.342Z,10.83
2022-12-06T23:26:20.128Z,10.20
2022-12-06T23:28:48.269Z,9.93
2022-12-06T23:31:17.040Z,8.93
2022-12-06T23:33:45.557Z,10.90
2022-12-06T23:36:14.825Z,9.00
2022-12-06T23:38:42.947Z,9.80
2022-12-06T23:41:13.144Z,8.83
2022-12-06T23:43:41.261Z,7.87
2022-12-06T23:46:10.063Z,13.97
2022-12-06T23:48:38.180Z,10.70
2022-12-06T23:51:07.034Z,8.97
2022-12-06T23:53:35.402Z,11.30
2022-12-06T23:56:05.224Z,13.83
2022-12-06T23:58:34.672Z,10.70
